Bakersfield, CA

8:47 PM PDT on July 23, 2016 (GMT -0700)
APRSWXNET | | Change Station

Elev 489 ft 35.06 °N, 119.08 °W | Updated 2 hours ago

Clear
Clear
98.0 °F
Feels Like 98.0 °F
N
1.0
Wind Variable Wind from WNW
Gusts 0.0 mph

Today
High -- | Low -- °F
--% Chance of Precip.
Yesterday
High -- | Low -- °F
Precip. -- in
Pressure 29.79 in
Visibility 10.0 miles
Clouds Clear
Dew Point 42.0 °F
Humidity 15%
Rainfall in
Snow Depth Not available.
5:59 AM 8:05 PM
Waning Gibbous, 80% visible
METAR KBFL 240254Z 29003KT 10SM CLR 35/03 A2981 RMK AO2 SLP086 T03500028 55008 $
Pressure 29.79 in
Visibility 10.0 miles
Clouds Clear
Dew Point 42.0 °F
Humidity 15%
Rainfall in
Snow Depth Not available.
5:59 AM 8:05 PM
Waning Gibbous, 80% visible
METAR KBFL 240254Z 29003KT 10SM CLR 35/03 A2981 RMK AO2 SLP086 T03500028 55008 $

10-Day Weather Forecast

Almanac

Astronomy

Jul. 23, 2016 Rise Set
Actual Time
Civil Twilight
Nautical Twilight
Astronomical Twilight
Moon
Length of Visible Light
Length of Day
Tomorrow will be .
, % of the Moon is Illuminated

Today's Extremes

State Highs State Lows

Community

WunderPhotos

Upload Photos

1,927,022 photos uploaded!

WunderBlog® & News

Nearby

Air Quality

  Air Quality AQ Index Pollutant
Not available.

Snow Depth

Station Depth Elevation

Earthquake Activity

City Distance Mag. Time & Date
Minimum magnitude displayed is 2.5.

Coastal Water Temperatures

Place Temperature

Stations

Nearby Weather Stations

Station Location Temp. Windchill Dew Point Humidity Wind Precip. Elev Updated Type
                   

Watches & Warnings

There are currently no watches in effect.